Time;durP1;ratioP1;P1;durP2;ratioP2;P2;SDS_P1;SDS_P2;PMS_P1;PMS_P2;Temp;Humidity;BMP_temperature;BMP_pressure;BME280_temperature;BME280_humidity;BME280_pressure;Samples;Min_cycle;Max_cycle;Signal;HPM_P1;HPM_P2
2023/05/04 02:01:19;;;;;;;19.73;7.18;;;;;;;;;;4715528;27;20217;-71
2023/05/04 02:03:47;;;;;;;20.12;7.32;;;;;;;;;;4309961;33;20077;-71
2023/05/04 02:06:13;;;;;;;18.23;7.40;;;;;;;;;;4311685;33;20070;-71
2023/05/04 02:08:39;;;;;;;17.62;6.65;;;;;;;;;;4311926;33;20089;-71
2023/05/04 02:11:07;;;;;;;25.83;7.90;;;;;;;;;;4311502;33;20091;-71
2023/05/04 02:13:39;;;;;;;18.67;7.70;;;;;;;;;;4310322;33;20100;-71
2023/05/04 02:16:05;;;;;;;21.65;7.97;;;;;;;;;;4311677;33;20519;-71
2023/05/04 02:18:32;;;;;;;29.05;8.70;;;;;;;;;;4311404;33;20074;-71
2023/05/04 02:20:58;;;;;;;29.73;9.73;;;;;;;;;;4311447;33;20059;-71
2023/05/04 02:23:25;;;;;;;30.98;9.20;;;;;;;;;;4310361;33;20075;-71
2023/05/04 02:25:51;;;;;;;28.45;9.98;;;;;;;;;;4310304;33;20446;-70
2023/05/04 02:28:17;;;;;;;26.08;10.10;;;;;;;;;;4308950;33;20074;-70
2023/05/04 02:30:43;;;;;;;32.15;9.10;;;;;;;;;;4309173;33;20506;-70
2023/05/04 02:33:10;;;;;;;22.65;7.37;;;;;;;;;;4308762;33;20414;-71
2023/05/04 02:35:35;;;;;;;21.27;7.87;;;;;;;;;;4308755;33;20115;-70
2023/05/04 02:38:04;;;;;;;24.73;8.27;;;;;;;;;;4307665;33;20051;-70
2023/05/04 02:40:31;;;;;;;20.12;8.05;;;;;;;;;;4308620;33;20049;-71
2023/05/04 02:42:57;;;;;;;20.70;8.15;;;;;;;;;;4308671;33;20418;-71
2023/05/04 02:45:23;;;;;;;20.98;7.87;;;;;;;;;;4307135;33;20044;-72
2023/05/04 02:47:50;;;;;;;30.00;8.40;;;;;;;;;;4306493;33;20516;-73
2023/05/04 02:50:15;;;;;;;19.25;7.57;;;;;;;;;;4306802;33;20029;-71
2023/05/04 02:52:42;;;;;;;23.40;8.05;;;;;;;;;;4308720;33;20065;-72
2023/05/04 02:55:08;;;;;;;21.90;6.90;;;;;;;;;;4308150;33;20048;-72
2023/05/04 02:57:34;;;;;;;18.75;7.32;;;;;;;;;;4308408;33;20405;-72
2023/05/04 03:00:01;;;;;;;16.80;5.25;;;;;;;;;;4307859;33;20083;-72
2023/05/04 03:02:27;;;;;;;11.95;5.85;;;;;;;;;;4310115;33;20053;-71
2023/05/04 03:04:53;;;;;;;12.37;6.32;;;;;;;;;;4311191;33;20048;-72
2023/05/04 03:07:19;;;;;;;10.93;5.40;;;;;;;;;;4310820;33;20094;-71
2023/05/04 03:09:45;;;;;;;19.50;5.45;;;;;;;;;;4319014;33;20500;-71
2023/05/04 03:12:11;;;;;;;17.40;6.57;;;;;;;;;;4321110;33;20053;-72
2023/05/04 03:14:38;;;;;;;13.43;5.82;;;;;;;;;;4322839;33;20881;-71
2023/05/04 03:17:04;;;;;;;18.60;6.53;;;;;;;;;;4292318;33;20126;-72
2023/05/04 03:19:30;;;;;;;18.37;6.00;;;;;;;;;;4278483;33;20558;-70
2023/05/04 03:21:57;;;;;;;11.60;5.20;;;;;;;;;;4277702;33;20071;-70
2023/05/04 03:24:24;;;;;;;18.85;5.80;;;;;;;;;;4277136;33;20412;-71
2023/05/04 03:26:50;;;;;;;12.25;5.18;;;;;;;;;;4276617;33;20552;-70
2023/05/04 03:29:16;;;;;;;9.93;4.85;;;;;;;;;;4278305;33;20037;-70
2023/05/04 03:31:43;;;;;;;21.50;5.80;;;;;;;;;;4278118;33;20049;-71
2023/05/04 03:34:11;;;;;;;17.17;5.93;;;;;;;;;;4278455;33;20084;-71
2023/05/04 03:36:38;;;;;;;11.07;5.25;;;;;;;;;;4277529;33;20385;-71
2023/05/04 03:39:04;;;;;;;16.20;5.10;;;;;;;;;;4278550;33;20395;-71
2023/05/04 03:41:31;;;;;;;11.88;5.95;;;;;;;;;;4278568;33;20037;-71
2023/05/04 03:43:58;;;;;;;19.55;5.65;;;;;;;;;;4264033;33;20049;-72
2023/05/04 03:46:24;;;;;;;22.27;6.80;;;;;;;;;;4261556;33;20484;-71
2023/05/04 03:48:51;;;;;;;15.32;6.45;;;;;;;;;;4280896;33;20049;-71
2023/05/04 03:51:18;;;;;;;23.62;5.97;;;;;;;;;;4290952;33;20071;-71
2023/05/04 03:53:44;;;;;;;16.42;5.85;;;;;;;;;;4260801;33;20033;-71
2023/05/04 03:56:11;;;;;;;9.43;5.47;;;;;;;;;;4262650;33;20057;-71
2023/05/04 03:58:37;;;;;;;17.02;6.62;;;;;;;;;;4260624;33;20054;-71
2023/05/04 04:01:04;;;;;;;25.77;5.90;;;;;;;;;;4260894;33;20079;-71
2023/05/04 04:03:30;;;;;;;35.13;7.55;;;;;;;;;;4261437;33;20397;-71
2023/05/04 04:05:56;;;;;;;15.32;6.57;;;;;;;;;;4262991;33;20058;-71
2023/05/04 04:08:23;;;;;;;18.20;6.03;;;;;;;;;;4264345;33;20046;-71
2023/05/04 04:10:50;;;;;;;22.95;6.53;;;;;;;;;;4262454;33;20408;-72
2023/05/04 04:13:16;;;;;;;16.98;5.80;;;;;;;;;;4264478;33;20383;-71
2023/05/04 04:15:44;;;;;;;23.08;5.85;;;;;;;;;;4252680;33;20548;-71
2023/05/04 04:18:10;;;;;;;11.40;5.50;;;;;;;;;;4248761;33;20064;-71
2023/05/04 04:20:36;;;;;;;20.25;4.95;;;;;;;;;;4248702;33;20076;-71
2023/05/04 04:23:02;;;;;;;11.43;4.93;;;;;;;;;;4245335;33;20121;-71
2023/05/04 04:25:29;;;;;;;11.20;4.43;;;;;;;;;;4260095;33;20374;-70
2023/05/04 04:27:55;;;;;;;15.75;5.43;;;;;;;;;;4262665;33;20585;-71
2023/05/04 04:30:21;;;;;;;12.30;4.12;;;;;;;;;;4264022;33;20092;-71
2023/05/04 04:32:48;;;;;;;9.23;4.50;;;;;;;;;;4262932;33;20075;-71
2023/05/04 04:35:14;;;;;;;13.18;4.40;;;;;;;;;;4262107;33;20046;-70
2023/05/04 04:37:40;;;;;;;10.85;4.22;;;;;;;;;;4263393;33;20112;-71
2023/05/04 04:40:07;;;;;;;18.62;5.32;;;;;;;;;;4266149;33;20050;-70
2023/05/04 04:42:33;;;;;;;11.98;4.03;;;;;;;;;;4266688;33;20459;-70
2023/05/04 04:44:59;;;;;;;14.07;3.10;;;;;;;;;;4278441;33;20080;-70
2023/05/04 04:47:26;;;;;;;10.07;3.37;;;;;;;;;;4286667;33;20075;-71
2023/05/04 04:49:52;;;;;;;7.87;3.85;;;;;;;;;;4287551;33;20145;-71
2023/05/04 04:52:18;;;;;;;6.68;3.78;;;;;;;;;;4288563;33;20033;-71
2023/05/04 04:54:45;;;;;;;8.73;3.85;;;;;;;;;;4305978;33;20037;-71
2023/05/04 04:57:11;;;;;;;13.02;4.32;;;;;;;;;;4313328;33;20066;-71
2023/05/04 04:59:37;;;;;;;10.15;4.00;;;;;;;;;;4311156;33;20071;-72
2023/05/04 05:02:03;;;;;;;6.95;3.72;;;;;;;;;;4309746;33;20063;-71
2023/05/04 05:04:30;;;;;;;12.32;4.82;;;;;;;;;;4312477;33;20060;-70
2023/05/04 05:06:55;;;;;;;11.77;3.45;;;;;;;;;;4312523;33;20070;-71
2023/05/04 05:09:22;;;;;;;9.80;3.75;;;;;;;;;;4311201;33;20067;-70
2023/05/04 05:11:48;;;;;;;3.03;2.20;;;;;;;;;;4310784;33;20447;-71
2023/05/04 05:14:14;;;;;;;3.75;2.17;;;;;;;;;;4312362;33;20049;-70
2023/05/04 05:16:41;;;;;;;6.75;2.20;;;;;;;;;;4312851;33;20058;-71
2023/05/04 05:19:07;;;;;;;4.65;2.70;;;;;;;;;;4312460;33;20041;-71
2023/05/04 05:21:33;;;;;;;3.17;1.98;;;;;;;;;;4312387;33;20048;-71
2023/05/04 05:24:00;;;;;;;9.90;2.15;;;;;;;;;;4306626;33;20085;-71
2023/05/04 05:26:26;;;;;;;5.28;2.05;;;;;;;;;;4310246;33;20465;-71
2023/05/04 05:28:52;;;;;;;2.50;1.60;;;;;;;;;;4310358;33;20052;-71
2023/05/04 05:31:19;;;;;;;5.40;2.10;;;;;;;;;;4309735;33;20700;-72
2023/05/04 05:33:45;;;;;;;6.12;2.12;;;;;;;;;;4309699;33;20057;-72
2023/05/04 05:36:11;;;;;;;10.85;2.33;;;;;;;;;;4278540;33;20070;-72
2023/05/04 05:38:37;;;;;;;8.73;3.75;;;;;;;;;;4285861;33;20091;-70
2023/05/04 05:41:03;;;;;;;4.85;1.98;;;;;;;;;;4283989;33;20025;-70
2023/05/04 05:43:29;;;;;;;7.97;2.10;;;;;;;;;;4281194;33;20090;-70
2023/05/04 05:45:56;;;;;;;4.60;2.30;;;;;;;;;;4292103;33;20826;-70
2023/05/04 05:48:22;;;;;;;4.32;1.90;;;;;;;;;;4291021;33;20391;-77
2023/05/04 05:50:48;;;;;;;3.08;1.85;;;;;;;;;;4294290;33;20048;-73
2023/05/04 05:53:15;;;;;;;4.47;2.33;;;;;;;;;;4282966;33;20079;-73
2023/05/04 05:55:40;;;;;;;3.60;1.45;;;;;;;;;;4298426;33;20132;-73
2023/05/04 05:58:07;;;;;;;2.42;1.73;;;;;;;;;;4300040;33;20075;-74
2023/05/04 06:00:33;;;;;;;6.87;1.45;;;;;;;;;;4296060;33;20078;-72
2023/05/04 06:03:00;;;;;;;1.30;1.10;;;;;;;;;;4296690;33;20079;-72
2023/05/04 06:05:26;;;;;;;4.35;1.60;;;;;;;;;;4306112;33;20109;-72
2023/05/04 06:07:52;;;;;;;1.33;1.23;;;;;;;;;;4291180;33;20183;-73
2023/05/04 06:10:18;;;;;;;3.12;1.40;;;;;;;;;;4272193;33;20042;-74
2023/05/04 06:12:45;;;;;;;4.40;1.40;;;;;;;;;;4268644;33;20067;-73
2023/05/04 06:15:13;;;;;;;2.12;1.10;;;;;;;;;;4233426;33;20048;-73
2023/05/04 06:17:39;;;;;;;5.80;2.85;;;;;;;;;;4222680;33;20094;-72
2023/05/04 06:20:06;;;;;;;2.58;0.93;;;;;;;;;;4223156;33;20121;-74
2023/05/04 06:22:32;;;;;;;3.40;1.58;;;;;;;;;;4219614;34;20061;-73
2023/05/04 06:24:58;;;;;;;2.65;1.17;;;;;;;;;;4222280;34;20119;-73
2023/05/04 06:27:24;;;;;;;5.53;1.40;;;;;;;;;;4220763;34;20367;-73
2023/05/04 06:29:50;;;;;;;1.10;1.00;;;;;;;;;;4219783;34;20157;-73
2023/05/04 06:32:17;;;;;;;3.25;1.10;;;;;;;;;;4220343;34;20068;-74
2023/05/04 06:34:43;;;;;;;4.62;1.30;;;;;;;;;;4215730;34;20047;-74
2023/05/04 06:37:10;;;;;;;2.40;1.40;;;;;;;;;;4209988;34;20545;-74
2023/05/04 06:39:36;;;;;;;1.55;1.20;;;;;;;;;;4194996;34;20069;-73
2023/05/04 06:42:02;;;;;;;1.50;1.40;;;;;;;;;;4216487;33;20747;-74
2023/05/04 06:44:36;;;;;;;2.12;1.33;;;;;;;;;;4224085;33;20055;-76
2023/05/04 06:47:03;;;;;;;2.15;1.65;;;;;;;;;;4258418;33;20201;-76
2023/05/04 06:49:33;;;;;;;1.42;1.33;;;;;;;;;;4264981;33;20062;-75
2023/05/04 06:52:00;;;;;;;5.82;1.80;;;;;;;;;;4264043;33;20468;-76
2023/05/04 06:54:26;;;;;;;1.42;1.17;;;;;;;;;;4279546;33;20045;-75
2023/05/04 06:56:53;;;;;;;2.45;1.20;;;;;;;;;;4274073;33;20037;-76
2023/05/04 06:59:19;;;;;;;2.67;1.20;;;;;;;;;;4278372;33;20088;-82
2023/05/04 07:01:46;;;;;;;1.58;1.25;;;;;;;;;;4277728;33;20075;-78
2023/05/04 07:04:12;;;;;;;1.75;1.65;;;;;;;;;;4278189;33;20178;-74
2023/05/04 07:06:38;;;;;;;1.90;1.33;;;;;;;;;;4274182;33;20172;-74
2023/05/04 07:09:05;;;;;;;2.75;1.00;;;;;;;;;;4261961;33;20184;-74
2023/05/04 07:11:31;;;;;;;1.77;1.35;;;;;;;;;;4275433;33;21056;-73
2023/05/04 07:13:57;;;;;;;5.87;1.35;;;;;;;;;;4278810;33;20104;-73
2023/05/04 07:16:25;;;;;;;1.20;1.10;;;;;;;;;;4277297;33;20041;-75
2023/05/04 07:18:51;;;;;;;1.10;0.98;;;;;;;;;;4278840;33;20357;-74
2023/05/04 07:21:17;;;;;;;2.95;1.48;;;;;;;;;;4274320;33;20410;-79
2023/05/04 07:23:43;;;;;;;3.87;1.60;;;;;;;;;;4254906;33;20060;-74
2023/05/04 07:26:09;;;;;;;2.55;1.42;;;;;;;;;;4247129;33;20106;-72
2023/05/04 07:28:35;;;;;;;2.00;1.10;;;;;;;;;;4262951;33;20045;-73
2023/05/04 07:31:02;;;;;;;1.25;1.25;;;;;;;;;;4264394;33;20427;-74
2023/05/04 07:33:28;;;;;;;4.93;1.12;;;;;;;;;;4262140;33;20038;-82
2023/05/04 07:35:57;;;;;;;1.10;1.10;;;;;;;;;;4264109;33;20065;-73
2023/05/04 07:38:25;;;;;;;1.20;1.10;;;;;;;;;;4263373;33;20041;-71
2023/05/04 07:40:55;;;;;;;1.35;1.00;;;;;;;;;;4263204;33;20803;-71
2023/05/04 07:43:21;;;;;;;2.95;1.70;;;;;;;;;;4262690;33;20030;-80
2023/05/04 07:45:48;;;;;;;3.40;1.30;;;;;;;;;;4275532;33;20046;-71
2023/05/04 07:48:15;;;;;;;3.87;1.50;;;;;;;;;;4277763;33;20107;-72
2023/05/04 07:50:41;;;;;;;0.88;0.88;;;;;;;;;;4277501;33;20049;-74
2023/05/04 07:53:07;;;;;;;1.23;1.10;;;;;;;;;;4275987;33;20076;-73
2023/05/04 07:55:34;;;;;;;2.28;1.20;;;;;;;;;;4294546;33;20059;-83
2023/05/04 07:58:00;;;;;;;1.90;1.35;;;;;;;;;;4302454;33;20095;-72
2023/05/04 08:00:26;;;;;;;1.40;1.30;;;;;;;;;;4296109;33;20090;-73
2023/05/04 08:02:52;;;;;;;2.30;1.83;;;;;;;;;;4302413;33;20067;-72
2023/05/04 08:05:19;;;;;;;2.28;1.12;;;;;;;;;;4307627;33;20468;-72
2023/05/04 08:07:45;;;;;;;1.42;1.30;;;;;;;;;;4275876;33;20042;-82
2023/05/04 08:10:11;;;;;;;7.03;1.30;;;;;;;;;;4279061;33;20188;-74
2023/05/04 08:12:40;;;;;;;4.20;1.33;;;;;;;;;;4278476;33;20173;-73
2023/05/04 08:15:07;;;;;;;2.58;1.15;;;;;;;;;;4273670;33;20063;-74
2023/05/04 08:17:40;;;;;;;2.95;1.48;;;;;;;;;;4274158;33;20072;-84
2023/05/04 08:20:06;;;;;;;2.30;1.45;;;;;;;;;;4272924;33;20057;-72
2023/05/04 08:22:33;;;;;;;9.60;1.30;;;;;;;;;;4264731;33;20045;-74
2023/05/04 08:24:59;;;;;;;2.15;1.48;;;;;;;;;;4275347;33;20215;-73
2023/05/04 08:27:25;;;;;;;1.37;1.08;;;;;;;;;;4272271;33;20045;-72
2023/05/04 08:29:52;;;;;;;4.70;1.65;;;;;;;;;;4276211;33;20527;-80
2023/05/04 08:32:18;;;;;;;1.75;1.65;;;;;;;;;;4266592;33;20046;-73
2023/05/04 08:34:44;;;;;;;5.12;1.42;;;;;;;;;;4267166;33;20050;-74
2023/05/04 08:37:10;;;;;;;2.22;1.45;;;;;;;;;;4271345;33;20041;-74
2023/05/04 08:39:36;;;;;;;1.17;1.17;;;;;;;;;;4293037;33;20041;-88
2023/05/04 08:42:02;;;;;;;3.60;1.92;;;;;;;;;;4294639;33;20087;-73
2023/05/04 08:44:30;;;;;;;2.28;1.35;;;;;;;;;;4304989;33;20493;-74
2023/05/04 08:46:56;;;;;;;1.35;1.12;;;;;;;;;;4302689;33;20071;-73
2023/05/04 08:49:23;;;;;;;2.47;1.55;;;;;;;;;;4296510;33;20070;-72
2023/05/04 08:51:49;;;;;;;2.35;1.08;;;;;;;;;;4297716;33;20093;-82
2023/05/04 08:54:16;;;;;;;1.98;1.48;;;;;;;;;;4287170;33;20363;-74
2023/05/04 08:56:43;;;;;;;1.75;1.55;;;;;;;;;;4277237;33;20065;-80
2023/05/04 08:59:16;;;;;;;44.25;6.70;;;;;;;;;;4278793;33;20085;-73
2023/05/04 09:01:42;;;;;;;3.08;1.50;;;;;;;;;;4278739;33;20037;-75
2023/05/04 09:04:09;;;;;;;6.30;2.67;;;;;;;;;;4263145;33;20046;-72
2023/05/04 09:06:35;;;;;;;1.60;1.50;;;;;;;;;;4263528;33;20060;-71
2023/05/04 09:09:01;;;;;;;1.25;1.20;;;;;;;;;;4264228;33;20109;-74
2023/05/04 09:11:27;;;;;;;1.73;1.62;;;;;;;;;;4263946;33;20076;-73
2023/05/04 09:13:54;;;;;;;2.67;2.17;;;;;;;;;;4264059;33;20506;-86
2023/05/04 09:16:21;;;;;;;93.55;6.43;;;;;;;;;;4262641;33;20093;-76
2023/05/04 09:18:47;;;;;;;7.37;1.67;;;;;;;;;;4260141;33;21449;-74
2023/05/04 09:21:13;;;;;;;8.00;1.10;;;;;;;;;;4258385;33;20060;-73
2023/05/04 09:23:52;;;;;;;3.60;1.15;;;;;;;;;;4260873;33;20085;-73
2023/05/04 09:26:25;;;;;;;3.53;1.45;;;;;;;;;;4276814;33;20041;-72
2023/05/04 09:28:51;;;;;;;1.70;1.27;;;;;;;;;;4277405;33;20493;-77
2023/05/04 09:31:17;;;;;;;7.80;1.40;;;;;;;;;;4275899;33;20089;-75
2023/05/04 09:33:44;;;;;;;2.08;1.52;;;;;;;;;;4278452;33;20063;-73
2023/05/04 09:36:13;;;;;;;5.82;1.50;;;;;;;;;;4274146;33;20089;-73
2023/05/04 09:38:40;;;;;;;10.70;1.30;;;;;;;;;;4276827;33;20118;-74
2023/05/04 09:41:06;;;;;;;0.98;0.98;;;;;;;;;;4279670;33;20287;-72
2023/05/04 09:43:39;;;;;;;1.33;1.10;;;;;;;;;;4305166;33;20497;-76
2023/05/04 09:46:05;;;;;;;12.37;2.00;;;;;;;;;;4304887;33;20419;-74
2023/05/04 09:48:32;;;;;;;1.90;1.65;;;;;;;;;;4306035;33;20435;-73
2023/05/04 09:50:58;;;;;;;5.22;1.30;;;;;;;;;;4290123;33;20396;-75
2023/05/04 09:53:26;;;;;;;5.30;2.05;;;;;;;;;;4260505;33;20061;-73
2023/05/04 09:56:21;;;;;;;6.22;1.45;;;;;;;;;;4259359;33;20030;-73
2023/05/04 09:58:49;;;;;;;4.05;1.30;;;;;;;;;;4194536;34;20874;-72
2023/05/04 10:01:15;;;;;;;2.55;1.00;;;;;;;;;;4181909;34;20051;-72
2023/05/04 10:03:42;;;;;;;5.50;2.92;;;;;;;;;;4182110;34;20048;-75
2023/05/04 10:06:09;;;;;;;3.10;1.92;;;;;;;;;;4192247;34;20890;-73
2023/05/04 10:08:36;;;;;;;8.27;1.67;;;;;;;;;;4182425;34;20111;-86
2023/05/04 10:11:02;;;;;;;1.90;1.62;;;;;;;;;;4180561;34;20509;-73
2023/05/04 10:13:28;;;;;;;1.60;1.50;;;;;;;;;;4182205;34;20291;-74
2023/05/04 10:16:03;;;;;;;1.50;1.33;;;;;;;;;;4182395;34;20123;-74
2023/05/04 10:18:30;;;;;;;3.45;1.60;;;;;;;;;;4181465;34;20117;-78
2023/05/04 10:21:03;;;;;;;3.22;2.00;;;;;;;;;;4181654;34;20047;-82
2023/05/04 10:23:29;;;;;;;2.90;1.70;;;;;;;;;;4197608;34;20519;-75
2023/05/04 10:26:12;;;;;;;4.07;1.75;;;;;;;;;;4209959;34;20047;-77
2023/05/04 10:28:38;;;;;;;4.37;2.50;;;;;;;;;;4207747;34;20061;-74
2023/05/04 10:31:07;;;;;;;1.40;1.23;;;;;;;;;;4209384;34;20642;-73
2023/05/04 10:33:37;;;;;;;8.57;1.75;;;;;;;;;;4237043;33;20469;-72
2023/05/04 10:36:03;;;;;;;1.70;1.60;;;;;;;;;;4297921;33;20086;-73
2023/05/04 10:38:40;;;;;;;7.95;1.98;;;;;;;;;;4300263;33;20650;-73
2023/05/04 10:41:16;;;;;;;2.25;1.40;;;;;;;;;;4300867;33;20094;-77
2023/05/04 10:43:47;;;;;;;3.42;1.40;;;;;;;;;;4308069;33;20045;-75
2023/05/04 10:46:16;;;;;;;1.10;1.00;;;;;;;;;;4281281;33;20064;-74
2023/05/04 10:48:42;;;;;;;1.50;1.40;;;;;;;;;;4288314;33;20033;-87
2023/05/04 10:51:16;;;;;;;2.67;1.35;;;;;;;;;;4284447;33;20112;-73
2023/05/04 10:53:42;;;;;;;3.00;1.75;;;;;;;;;;4285323;33;20444;-73
2023/05/04 10:56:19;;;;;;;3.58;1.67;;;;;;;;;;4286367;33;20056;-71
2023/05/04 10:58:45;;;;;;;3.55;2.15;;;;;;;;;;4282048;33;20071;-73
2023/05/04 11:01:12;;;;;;;4.35;1.73;;;;;;;;;;4448705;27;20488;-74
2023/05/04 11:03:42;;;;;;;3.65;2.70;;;;;;;;;;4293818;33;20048;-71
2023/05/04 11:06:15;;;;;;;3.05;2.20;;;;;;;;;;4290893;33;20041;-74
2023/05/04 11:08:42;;;;;;;2.03;1.77;;;;;;;;;;4293544;33;20370;-75
2023/05/04 11:11:08;;;;;;;1.40;1.33;;;;;;;;;;4290405;33;20049;-87
2023/05/04 11:13:39;;;;;;;8.52;1.40;;;;;;;;;;4292951;33;20041;-72
2023/05/04 11:16:05;;;;;;;7.97;1.58;;;;;;;;;;4290481;33;20406;-72
2023/05/04 11:18:33;;;;;;;1.30;1.27;;;;;;;;;;4304209;33;20057;-75
2023/05/04 11:21:00;;;;;;;3.45;1.30;;;;;;;;;;4280791;33;20092;-73
2023/05/04 11:23:27;;;;;;;7.10;1.70;;;;;;;;;;4278012;33;20055;-75
2023/05/04 11:25:53;;;;;;;4.93;1.60;;;;;;;;;;4279366;33;20049;-73
2023/05/04 11:28:30;;;;;;;3.12;1.70;;;;;;;;;;4279144;33;20123;-75
2023/05/04 11:30:57;;;;;;;2.22;1.30;;;;;;;;;;4282847;33;20365;-78
2023/05/04 11:33:23;;;;;;;1.20;1.20;;;;;;;;;;4281277;33;20098;-87
2023/05/04 11:35:57;;;;;;;2.10;1.92;;;;;;;;;;4278461;33;20151;-74
2023/05/04 11:38:24;;;;;;;4.68;1.95;;;;;;;;;;4287226;33;20183;-73
2023/05/04 11:40:50;;;;;;;3.50;2.08;;;;;;;;;;4279387;33;20441;-74
2023/05/04 11:43:16;;;;;;;3.25;2.42;;;;;;;;;;4277635;33;20034;-80
2023/05/04 11:45:43;;;;;;;9.18;1.87;;;;;;;;;;4235325;33;20084;-72
2023/05/04 11:48:10;;;;;;;2.10;1.87;;;;;;;;;;4239717;33;20076;-76
2023/05/04 11:50:36;;;;;;;2.28;1.98;;;;;;;;;;4236578;33;20050;-73
2023/05/04 11:53:03;;;;;;;1.58;1.42;;;;;;;;;;4262047;33;20075;-72
2023/05/04 11:55:30;;;;;;;1.50;1.40;;;;;;;;;;4237625;33;20086;-72
2023/05/04 11:57:57;;;;;;;1.50;1.40;;;;;;;;;;4232151;33;20099;-74
2023/05/04 12:00:34;;;;;;;2.05;1.55;;;;;;;;;;4232188;33;20435;-73
2023/05/04 12:03:00;;;;;;;1.27;1.27;;;;;;;;;;4229713;33;20453;-74
2023/05/04 12:05:27;;;;;;;7.15;1.75;;;;;;;;;;4231404;33;20039;-73
2023/05/04 12:07:53;;;;;;;2.65;1.35;;;;;;;;;;4230530;33;20090;-72
2023/05/04 12:10:30;;;;;;;6.22;1.50;;;;;;;;;;4235058;33;20217;-72
2023/05/04 12:12:56;;;;;;;5.28;1.80;;;;;;;;;;4264239;33;20067;-73
2023/05/04 12:15:35;;;;;;;1.15;1.15;;;;;;;;;;4262598;33;20370;-74
2023/05/04 12:18:02;;;;;;;4.70;1.65;;;;;;;;;;4277368;33;20075;-73
2023/05/04 12:20:28;;;;;;;4.22;2.05;;;;;;;;;;4277594;33;20233;-75
2023/05/04 12:22:56;;;;;;;3.08;2.00;;;;;;;;;;4277991;33;20049;-72
2023/05/04 12:25:22;;;;;;;7.20;1.42;;;;;;;;;;4275723;33;20071;-74
2023/05/04 12:27:49;;;;;;;2.70;1.92;;;;;;;;;;4291715;33;20684;-74
2023/05/04 12:30:15;;;;;;;7.85;1.40;;;;;;;;;;4290499;33;20533;-73
2023/05/04 12:32:42;;;;;;;1.98;1.75;;;;;;;;;;4284829;33;20536;-73
2023/05/04 12:35:08;;;;;;;3.67;1.60;;;;;;;;;;4291255;33;20053;-78
2023/05/04 12:37:34;;;;;;;4.55;1.67;;;;;;;;;;4288783;33;20105;-74
2023/05/04 12:40:01;;;;;;;1.25;1.25;;;;;;;;;;4291975;33;20995;-74
2023/05/04 12:42:27;;;;;;;1.35;1.35;;;;;;;;;;4288574;33;20088;-78
2023/05/04 12:44:53;;;;;;;3.83;1.85;;;;;;;;;;4301381;33;20462;-75
2023/05/04 12:47:22;;;;;;;3.60;1.50;;;;;;;;;;4293672;33;20096;-73
2023/05/04 12:49:49;;;;;;;4.07;1.80;;;;;;;;;;4291376;33;20450;-75
2023/05/04 12:52:15;;;;;;;1.60;1.50;;;;;;;;;;4292634;33;20075;-86
2023/05/04 12:54:41;;;;;;;1.35;1.35;;;;;;;;;;4291914;33;20054;-73
2023/05/04 12:57:07;;;;;;;5.97;1.40;;;;;;;;;;4291514;33;20059;-76
2023/05/04 12:59:33;;;;;;;7.07;2.25;;;;;;;;;;4293860;33;20053;-75
2023/05/04 13:02:00;;;;;;;13.45;1.70;;;;;;;;;;4290984;33;20899;-73
2023/05/04 13:04:27;;;;;;;2.83;1.77;;;;;;;;;;4292222;33;20049;-77
2023/05/04 13:06:53;;;;;;;6.25;1.73;;;;;;;;;;4293114;33;20096;-74
2023/05/04 13:09:19;;;;;;;2.97;1.65;;;;;;;;;;4292550;33;20521;-75
2023/05/04 13:11:46;;;;;;;5.53;2.05;;;;;;;;;;4292842;33;20384;-76
2023/05/04 13:14:12;;;;;;;6.00;3.53;;;;;;;;;;4293092;33;20041;-74
2023/05/04 13:16:38;;;;;;;6.53;2.10;;;;;;;;;;4293241;33;20112;-76
2023/05/04 13:19:04;;;;;;;1.60;1.50;;;;;;;;;;4290678;33;20041;-76
2023/05/04 13:21:30;;;;;;;4.53;2.47;;;;;;;;;;4275494;33;20065;-75
2023/05/04 13:23:58;;;;;;;1.42;1.42;;;;;;;;;;4276357;33;20435;-86
2023/05/04 13:26:24;;;;;;;3.95;1.52;;;;;;;;;;4271076;33;20072;-73
2023/05/04 13:28:50;;;;;;;1.90;1.80;;;;;;;;;;4275406;33;20144;-76
2023/05/04 13:31:16;;;;;;;3.42;2.15;;;;;;;;;;4276367;33;20520;-73
2023/05/04 13:33:44;;;;;;;4.30;1.60;;;;;;;;;;4270921;33;20081;-76
2023/05/04 13:36:10;;;;;;;4.70;1.33;;;;;;;;;;4292511;33;20045;-76
2023/05/04 13:38:36;;;;;;;5.35;1.58;;;;;;;;;;4303004;33;20385;-75
2023/05/04 13:41:02;;;;;;;3.62;1.50;;;;;;;;;;4309032;33;20041;-78
2023/05/04 13:43:28;;;;;;;2.45;1.52;;;;;;;;;;4302192;33;20071;-73
2023/05/04 13:45:56;;;;;;;4.68;1.65;;;;;;;;;;4305132;33;20053;-78
2023/05/04 13:48:24;;;;;;;4.00;1.50;;;;;;;;;;4302374;33;20092;-75
2023/05/04 13:50:51;;;;;;;1.62;1.52;;;;;;;;;;4303830;33;20141;-75
2023/05/04 13:53:16;;;;;;;3.95;1.75;;;;;;;;;;4302198;33;20041;-75
2023/05/04 13:55:43;;;;;;;8.65;1.90;;;;;;;;;;4301895;33;20089;-74
2023/05/04 13:58:09;;;;;;;1.58;1.48;;;;;;;;;;4298571;33;20072;-87
2023/05/04 14:00:35;;;;;;;1.52;1.42;;;;;;;;;;4298501;33;20063;-72
2023/05/04 14:03:01;;;;;;;2.95;1.87;;;;;;;;;;4297571;33;20070;-74
2023/05/04 14:05:27;;;;;;;0.98;0.98;;;;;;;;;;4304498;33;20069;-74
2023/05/04 14:07:53;;;;;;;1.17;1.17;;;;;;;;;;4304581;33;20044;-73
2023/05/04 14:10:20;;;;;;;1.62;1.42;;;;;;;;;;4301976;33;20093;-83
2023/05/04 14:12:46;;;;;;;2.47;1.73;;;;;;;;;;4303684;33;20041;-72
2023/05/04 14:15:12;;;;;;;1.73;1.62;;;;;;;;;;4303644;33;20100;-76
2023/05/04 14:17:38;;;;;;;3.25;1.40;;;;;;;;;;4299962;33;20269;-76
2023/05/04 14:20:05;;;;;;;5.55;1.30;;;;;;;;;;4306138;33;20071;-73
2023/05/04 14:22:31;;;;;;;1.80;1.70;;;;;;;;;;4306243;33;20063;-80
2023/05/04 14:24:57;;;;;;;7.25;1.77;;;;;;;;;;4304976;33;20093;-76
2023/05/04 14:27:23;;;;;;;2.67;1.62;;;;;;;;;;4307797;33;20414;-73
2023/05/04 14:29:50;;;;;;;1.95;1.48;;;;;;;;;;4304651;33;20057;-73
2023/05/04 14:32:18;;;;;;;1.35;1.30;;;;;;;;;;4305620;33;20077;-73
2023/05/04 14:34:45;;;;;;;2.83;1.40;;;;;;;;;;4293958;33;20475;-79
2023/05/04 14:37:11;;;;;;;6.20;1.77;;;;;;;;;;4280373;33;20091;-72
2023/05/04 14:39:38;;;;;;;6.78;1.70;;;;;;;;;;4277574;33;20478;-75
2023/05/04 14:42:04;;;;;;;2.28;1.60;;;;;;;;;;4279511;33;20033;-72
2023/05/04 14:44:36;;;;;;;2.42;1.73;;;;;;;;;;4278961;33;20057;-86
2023/05/04 14:47:02;;;;;;;3.83;1.42;;;;;;;;;;4271006;33;20073;-72
2023/05/04 14:49:28;;;;;;;7.32;1.37;;;;;;;;;;4267220;33;20142;-73
2023/05/04 14:51:54;;;;;;;2.60;1.33;;;;;;;;;;4264377;33;20425;-73
2023/05/04 14:54:21;;;;;;;12.20;2.37;;;;;;;;;;4263798;33;20428;-75
2023/05/04 14:56:49;;;;;;;1.50;1.37;;;;;;;;;;4261182;33;20062;-83
2023/05/04 14:59:15;;;;;;;7.50;2.72;;;;;;;;;;4231314;33;20054;-75
2023/05/04 15:01:42;;;;;;;2.90;1.90;;;;;;;;;;4231957;33;20084;-79
2023/05/04 15:04:08;;;;;;;4.03;1.20;;;;;;;;;;4234174;33;20035;-72
2023/05/04 15:06:34;;;;;;;1.37;1.30;;;;;;;;;;4233227;33;20144;-72
2023/05/04 15:09:02;;;;;;;4.47;1.77;;;;;;;;;;4217852;33;20046;-74
2023/05/04 15:11:28;;;;;;;1.52;1.40;;;;;;;;;;4235720;33;21023;-72
2023/05/04 15:13:56;;;;;;;3.33;1.40;;;;;;;;;;4234508;33;20118;-72
2023/05/04 15:16:28;;;;;;;1.17;1.17;;;;;;;;;;4235783;33;20160;-72
2023/05/04 15:18:54;;;;;;;2.60;1.50;;;;;;;;;;4257264;33;20066;-74
2023/05/04 15:21:21;;;;;;;2.75;1.48;;;;;;;;;;4262744;33;20178;-72
2023/05/04 15:23:47;;;;;;;3.40;1.40;;;;;;;;;;4263780;33;20216;-73
2023/05/04 15:26:13;;;;;;;1.90;1.80;;;;;;;;;;4264406;33;20045;-72
2023/05/04 15:28:39;;;;;;;7.10;1.90;;;;;;;;;;4264587;33;20056;-72
2023/05/04 15:31:06;;;;;;;1.60;1.50;;;;;;;;;;4300443;33;20049;-74
2023/05/04 15:33:32;;;;;;;3.15;1.35;;;;;;;;;;4303143;33;20616;-74
2023/05/04 15:35:58;;;;;;;10.45;1.70;;;;;;;;;;4280156;33;20095;-74
2023/05/04 15:38:27;;;;;;;2.03;1.90;;;;;;;;;;4280870;33;20037;-73
2023/05/04 15:40:59;;;;;;;5.57;1.65;;;;;;;;;;4278004;33;20103;-74
2023/05/04 15:43:26;;;;;;;1.60;1.37;;;;;;;;;;4280318;33;20045;-74
2023/05/04 15:45:53;;;;;;;1.65;1.55;;;;;;;;;;4279955;33;20134;-73
2023/05/04 15:48:22;;;;;;;1.45;1.35;;;;;;;;;;4259159;33;20067;-72
2023/05/04 15:50:52;;;;;;;1.52;1.42;;;;;;;;;;4260444;33;20069;-74
2023/05/04 15:53:23;;;;;;;10.30;1.60;;;;;;;;;;4259377;33;20495;-78
2023/05/04 15:55:52;;;;;;;2.25;1.60;;;;;;;;;;4265141;33;20081;-73
2023/05/04 15:58:20;;;;;;;3.55;1.65;;;;;;;;;;4262612;33;20470;-74
2023/05/04 16:00:48;;;;;;;8.52;1.40;;;;;;;;;;4267001;33;20891;-74
2023/05/04 16:03:22;;;;;;;2.10;1.77;;;;;;;;;;4250388;33;20087;-77
2023/05/04 16:05:54;;;;;;;2.60;1.45;;;;;;;;;;4247860;33;20366;-74
2023/05/04 16:08:35;;;;;;;2.40;1.87;;;;;;;;;;4239107;33;20064;-73
2023/05/04 16:11:10;;;;;;;5.20;1.98;;;;;;;;;;4240069;33;20523;-74
2023/05/04 16:13:50;;;;;;;2.72;1.70;;;;;;;;;;4239524;33;20050;-74
2023/05/04 16:16:29;;;;;;;2.05;1.50;;;;;;;;;;4233274;33;20524;-74
2023/05/04 16:18:55;;;;;;;7.03;1.50;;;;;;;;;;4234060;33;20209;-75
2023/05/04 16:21:26;;;;;;;3.12;1.77;;;;;;;;;;4233434;33;20062;-78
2023/05/04 16:24:06;;;;;;;3.85;1.67;;;;;;;;;;4236339;33;20050;-74
2023/05/04 16:26:35;;;;;;;3.35;1.73;;;;;;;;;;4236016;33;20067;-73
2023/05/04 16:29:02;;;;;;;1.30;1.20;;;;;;;;;;4233701;33;20401;-76
2023/05/04 16:31:28;;;;;;;2.53;1.60;;;;;;;;;;4232311;33;20545;-73
2023/05/04 16:33:54;;;;;;;3.45;1.50;;;;;;;;;;4234790;33;20098;-73
2023/05/04 16:36:21;;;;;;;6.68;1.80;;;;;;;;;;4235435;33;20068;-73
2023/05/04 16:38:47;;;;;;;7.40;2.28;;;;;;;;;;4237169;33;20038;-77
2023/05/04 16:41:13;;;;;;;3.55;1.92;;;;;;;;;;4250315;33;20301;-73